Paoli, Indiana
Current Conditions -  °F | °C
As of 11:35 AM on Saturday 22 Nov 2014 (Local Time) from KHNB Reporting Station
Clear Clear  
Wind Chill: 57°   Ceiling: Unl
Heat Index: 57°   Visibility: 10mi
Dew Point: 41°   Wind: 18mph
Humidity: 55%   Direction: 200°SSW
Pressure: 30.22"   Gusts: 23mph
Location:  38.56°N, 86.47°W
Report Text: KHNB 221635Z AUTO 20016G20KT 10SM CLR 14/05 A3022 RMK AO1
Loading
Personal Weather Stations






























Interactive Weather Map New forecast layout! Learn more

10-Day Weather Forecast

Advertisements
Track Severe Weather on mobile